createdAt,value
2019-05-09T00:01:43.744Z,40.96
2019-05-09T00:04:14.015Z,41.25
2019-05-09T00:06:44.635Z,40.90
2019-05-09T00:09:15.392Z,41.05
2019-05-09T00:11:45.952Z,40.98
2019-05-09T00:14:16.523Z,41.22
2019-05-09T00:16:47.110Z,41.03
2019-05-09T00:19:17.708Z,41.43
2019-05-09T00:21:54.062Z,41.44
2019-05-09T00:24:24.758Z,41.72
2019-05-09T00:26:55.344Z,41.60
2019-05-09T00:29:30.554Z,41.79
2019-05-09T00:32:18.083Z,41.71
2019-05-09T00:34:56.069Z,41.38
2019-05-09T00:37:44.815Z,41.70
2019-05-09T00:40:16.369Z,41.60
2019-05-09T00:42:46.930Z,42.03
2019-05-09T00:45:19.141Z,41.87
2019-05-09T00:47:49.721Z,41.80
2019-05-09T00:50:20.304Z,41.83
2019-05-09T00:52:50.980Z,41.71
2019-05-09T00:55:23.747Z,41.78
2019-05-09T00:57:53.963Z,41.71
2019-05-09T01:00:24.813Z,41.69
2019-05-09T01:02:55.455Z,41.69
2019-05-09T01:05:26.316Z,41.99
2019-05-09T01:07:58.333Z,41.77
2019-05-09T01:10:29.146Z,41.70
2019-05-09T01:12:59.621Z,41.81
2019-05-09T01:15:30.203Z,41.79
2019-05-09T01:18:00.786Z,41.51
2019-05-09T01:20:33.319Z,42.01
2019-05-09T01:23:03.662Z,42.04
2019-05-09T01:25:34.214Z,42.07
2019-05-09T01:28:04.842Z,42.19
2019-05-09T01:30:35.474Z,42.12
2019-05-09T01:33:24.200Z,42.17
2019-05-09T01:35:54.887Z,42.32
2019-05-09T01:38:25.494Z,42.36
2019-05-09T01:40:56.086Z,42.12
2019-05-09T01:43:26.666Z,42.10
2019-05-09T01:45:57.259Z,41.86
2019-05-09T01:48:29.533Z,42.17
2019-05-09T01:51:00.088Z,42.42
2019-05-09T01:53:33.438Z,42.62
2019-05-09T01:56:05.276Z,42.51
2019-05-09T01:58:35.873Z,42.52
2019-05-09T02:01:08.321Z,42.44
2019-05-09T02:03:38.902Z,42.45
2019-05-09T02:06:09.481Z,42.60
2019-05-09T02:08:40.037Z,42.68
2019-05-09T02:11:13.090Z,42.51
2019-05-09T02:13:44.215Z,42.46
2019-05-09T02:16:19.521Z,42.60
2019-05-09T02:18:54.694Z,42.43
2019-05-09T02:21:25.253Z,42.53
2019-05-09T02:23:55.839Z,42.82
2019-05-09T02:26:26.389Z,42.75
2019-05-09T02:28:56.967Z,42.96
2019-05-09T02:31:27.623Z,42.77
2019-05-09T02:33:58.176Z,42.72
2019-05-09T02:36:29.595Z,43.37
2019-05-09T02:39:00.210Z,43.23
2019-05-09T02:41:30.846Z,43.33
2019-05-09T02:44:01.454Z,43.36
2019-05-09T02:46:39.657Z,43.33
2019-05-09T02:49:11.745Z,43.35
2019-05-09T02:51:42.558Z,43.41
2019-05-09T02:54:13.113Z,43.15
2019-05-09T02:56:44.436Z,43.46
2019-05-09T02:59:32.782Z,43.45
2019-05-09T03:02:19.560Z,43.28
2019-05-09T03:04:49.276Z,43.39
2019-05-09T03:07:21.469Z,42.92
2019-05-09T03:09:52.038Z,43.26
2019-05-09T03:12:32.051Z,42.74
2019-05-09T03:14:54.852Z,43.02
2019-05-09T03:17:27.856Z,43.48
2019-05-09T03:19:58.639Z,42.99
2019-05-09T03:22:29.594Z,43.30
2019-05-09T03:25:00.166Z,43.20
2019-05-09T03:27:32.383Z,43.19
2019-05-09T03:30:04.596Z,42.97
2019-05-09T03:32:38.537Z,43.38
2019-05-09T03:35:08.407Z,43.46
2019-05-09T03:37:39.056Z,43.33
2019-05-09T03:40:09.701Z,43.10
2019-05-09T03:42:43.599Z,43.14
2019-05-09T03:45:14.270Z,43.00
2019-05-09T03:47:49.164Z,43.11
2019-05-09T03:50:19.740Z,42.89
2019-05-09T03:52:50.294Z,42.93
2019-05-09T03:55:22.512Z,43.06
2019-05-09T03:58:03.568Z,43.12
2019-05-09T04:00:34.129Z,43.27
2019-05-09T04:03:04.774Z,43.13
2019-05-09T04:05:37.519Z,43.41
2019-05-09T04:08:18.221Z,43.44
2019-05-09T04:10:51.575Z,43.59
2019-05-09T04:13:24.333Z,43.38
2019-05-09T04:15:55.219Z,43.20
2019-05-09T04:18:27.735Z,43.27
2019-05-09T04:20:58.372Z,43.63
2019-05-09T04:23:28.951Z,43.42
2019-05-09T04:26:01.193Z,43.34
2019-05-09T04:28:31.826Z,43.50
2019-05-09T04:31:02.392Z,43.33
2019-05-09T04:33:32.967Z,43.46
2019-05-09T04:36:03.574Z,43.56
2019-05-09T04:38:34.249Z,43.61
2019-05-09T04:41:04.893Z,43.62
2019-05-09T04:43:39.455Z,43.73
2019-05-09T04:46:12.861Z,43.88
2019-05-09T04:48:42.262Z,43.83
2019-05-09T04:51:12.844Z,43.90
2019-05-09T04:53:43.408Z,43.88
2019-05-09T04:56:24.902Z,43.98
2019-05-09T04:58:55.487Z,44.04
2019-05-09T05:01:39.900Z,44.00
2019-05-09T05:04:10.903Z,43.91
2019-05-09T05:06:42.417Z,44.21
2019-05-09T05:09:13.101Z,43.62
2019-05-09T05:11:46.520Z,43.48
2019-05-09T05:14:22.667Z,43.54
2019-05-09T05:16:55.728Z,43.47
2019-05-09T05:19:30.929Z,43.04
2019-05-09T05:22:01.250Z,42.28
2019-05-09T05:24:39.288Z,42.41
2019-05-09T05:27:10.034Z,43.35
2019-05-09T05:29:40.611Z,42.53
2019-05-09T05:32:14.106Z,42.96
2019-05-09T05:34:48.034Z,43.31
2019-05-09T05:37:19.598Z,43.87
2019-05-09T05:39:50.206Z,43.79
2019-05-09T05:42:22.259Z,44.06
2019-05-09T05:44:53.776Z,44.06
2019-05-09T05:47:27.254Z,44.01
2019-05-09T05:49:58.262Z,44.41
2019-05-09T05:52:28.840Z,44.41
2019-05-09T05:55:00.215Z,43.98
2019-05-09T05:57:30.929Z,43.90
2019-05-09T06:00:01.480Z,43.96
2019-05-09T06:02:33.166Z,43.87
2019-05-09T06:05:04.340Z,43.85
2019-05-09T06:07:34.918Z,44.17
2019-05-09T06:10:08.264Z,43.96
2019-05-09T06:12:38.629Z,44.13
2019-05-09T06:15:09.851Z,44.29
2019-05-09T06:17:40.430Z,43.92
2019-05-09T06:20:11.352Z,44.20
2019-05-09T06:22:41.898Z,44.45
2019-05-09T06:25:12.542Z,44.56
2019-05-09T06:27:43.109Z,44.38
2019-05-09T06:30:17.577Z,44.75
2019-05-09T06:32:48.166Z,45.02
2019-05-09T06:35:21.898Z,44.98
2019-05-09T06:37:52.457Z,44.91
2019-05-09T06:40:24.668Z,45.08
2019-05-09T06:42:55.295Z,44.72
2019-05-09T06:45:30.714Z,45.16
2019-05-09T06:48:01.352Z,45.50
2019-05-09T06:50:31.954Z,45.36
2019-05-09T06:53:02.511Z,45.83
2019-05-09T06:55:33.098Z,45.93
2019-05-09T06:58:05.385Z,47.05
2019-05-09T07:00:39.116Z,46.47
2019-05-09T07:03:11.637Z,48.18
2019-05-09T07:05:53.173Z,48.39
2019-05-09T07:08:31.197Z,49.03
2019-05-09T07:11:00.534Z,49.79
2019-05-09T07:13:31.200Z,49.75
2019-05-09T07:16:02.235Z,49.62
2019-05-09T07:18:32.813Z,49.31
2019-05-09T07:21:03.698Z,49.99
2019-05-09T07:23:34.284Z,50.84
2019-05-09T07:26:12.566Z,49.98
2019-05-09T07:28:43.157Z,51.22
2019-05-09T07:31:28.437Z,50.38
2019-05-09T07:34:03.746Z,51.87
2019-05-09T07:36:34.698Z,51.68
2019-05-09T07:39:08.712Z,52.50
2019-05-09T07:41:39.651Z,52.92
2019-05-09T07:44:10.219Z,53.95
2019-05-09T07:46:51.237Z,52.75
2019-05-09T07:49:21.843Z,53.06
2019-05-09T07:51:52.522Z,54.44
2019-05-09T07:54:25.701Z,54.31
2019-05-09T07:56:57.855Z,54.57
2019-05-09T07:59:27.744Z,55.58
2019-05-09T08:01:58.441Z,55.45
2019-05-09T08:04:29.014Z,55.53
2019-05-09T08:06:59.877Z,55.70
2019-05-09T08:09:33.009Z,57.14
2019-05-09T08:12:03.591Z,58.58
2019-05-09T08:14:39.259Z,59.71
2019-05-09T08:17:10.123Z,59.11
2019-05-09T08:19:40.702Z,59.71
2019-05-09T08:22:12.380Z,60.33
2019-05-09T08:24:44.087Z,58.56
2019-05-09T08:27:14.653Z,59.48
2019-05-09T08:29:47.689Z,57.39
2019-05-09T08:32:18.160Z,58.30
2019-05-09T08:34:48.802Z,60.24
2019-05-09T08:37:19.380Z,60.04
2019-05-09T08:39:49.953Z,59.84
2019-05-09T08:42:20.523Z,58.75
2019-05-09T08:44:51.090Z,59.48
2019-05-09T08:47:21.669Z,59.06
2019-05-09T08:50:01.583Z,61.02
2019-05-09T08:52:32.129Z,59.65
2019-05-09T08:55:02.741Z,60.86
2019-05-09T08:57:33.424Z,60.38
2019-05-09T09:00:08.701Z,61.83
2019-05-09T09:02:39.253Z,60.46
2019-05-09T09:05:10.073Z,60.88
2019-05-09T09:07:40.649Z,60.63
2019-05-09T09:10:11.645Z,63.49
2019-05-09T09:12:42.268Z,62.78
2019-05-09T09:15:12.934Z,61.68
2019-05-09T09:17:43.518Z,62.94
2019-05-09T09:20:14.218Z,64.12
2019-05-09T09:22:44.807Z,63.84
2019-05-09T09:25:15.406Z,64.63
2019-05-09T09:27:50.696Z,65.82
2019-05-09T09:30:24.713Z,65.00
2019-05-09T09:32:51.147Z,64.03
2019-05-09T09:35:21.814Z,64.28
2019-05-09T09:37:52.476Z,62.44
2019-05-09T09:40:23.959Z,65.50
2019-05-09T09:42:54.564Z,64.20
2019-05-09T09:45:27.739Z,64.20
2019-05-09T09:47:59.196Z,64.35
2019-05-09T09:50:30.182Z,62.58
2019-05-09T09:53:01.843Z,61.76
2019-05-09T09:55:32.608Z,63.43
2019-05-09T09:58:03.723Z,61.56
2019-05-09T10:01:08.810Z,63.85
2019-05-09T10:03:38.323Z,63.25
2019-05-09T10:06:09.130Z,62.57
2019-05-09T10:08:40.472Z,62.46
2019-05-09T10:11:11.418Z,63.00
2019-05-09T10:13:42.003Z,63.52
2019-05-09T10:16:28.590Z,61.70
2019-05-09T10:18:48.145Z,62.70
2019-05-09T10:21:20.366Z,65.03
2019-05-09T10:23:51.176Z,62.80
2019-05-09T10:26:21.782Z,62.99
2019-05-09T10:28:52.341Z,62.36
2019-05-09T10:31:23.093Z,62.03
2019-05-09T10:33:55.168Z,63.69
2019-05-09T10:36:27.848Z,64.20
2019-05-09T10:38:58.841Z,62.60
2019-05-09T10:41:29.989Z,61.33
2019-05-09T10:44:02.207Z,62.32
2019-05-09T10:46:52.135Z,63.20
2019-05-09T10:49:08.517Z,62.48
2019-05-09T10:51:39.193Z,62.58
2019-05-09T10:54:09.784Z,61.94
2019-05-09T10:56:40.457Z,62.79
2019-05-09T10:59:11.200Z,63.59
2019-05-09T11:01:41.795Z,64.07
2019-05-09T11:04:12.873Z,62.89
2019-05-09T11:06:43.431Z,63.23
2019-05-09T11:09:14.008Z,62.70
2019-05-09T11:11:44.740Z,63.98
2019-05-09T11:14:31.606Z,62.10
2019-05-09T11:16:54.295Z,62.81
2019-05-09T11:19:20.027Z,61.48
2019-05-09T11:21:50.597Z,60.09
2019-05-09T11:24:21.465Z,61.54
2019-05-09T11:26:53.641Z,62.17
2019-05-09T11:29:24.207Z,62.91
2019-05-09T11:31:54.772Z,62.22
2019-05-09T11:34:25.402Z,62.11
2019-05-09T11:36:57.908Z,61.49
2019-05-09T11:39:36.548Z,62.62
2019-05-09T11:42:00.553Z,61.84
2019-05-09T11:44:31.118Z,63.61
2019-05-09T11:47:01.689Z,63.81
2019-05-09T11:49:32.515Z,62.00
2019-05-09T11:52:03.088Z,61.35
2019-05-09T11:54:33.755Z,62.27
2019-05-09T11:57:04.327Z,61.57
2019-05-09T11:59:34.890Z,60.60
2019-05-09T12:02:08.917Z,60.89
2019-05-09T12:04:39.090Z,61.62
2019-05-09T12:07:09.666Z,62.22
2019-05-09T12:09:40.226Z,63.60
2019-05-09T12:12:10.795Z,62.15
2019-05-09T12:14:41.365Z,61.21
2019-05-09T12:17:11.920Z,62.08
2019-05-09T12:19:42.496Z,63.20
2019-05-09T12:22:13.087Z,60.99
2019-05-09T12:24:44.885Z,61.47
2019-05-09T12:27:18.571Z,61.45
2019-05-09T12:29:48.400Z,61.91
2019-05-09T12:32:22.094Z,61.08
2019-05-09T12:34:52.723Z,60.50
2019-05-09T12:37:23.319Z,60.79
2019-05-09T12:39:55.805Z,59.04
2019-05-09T12:42:28.835Z,59.40
2019-05-09T12:44:59.107Z,61.83
2019-05-09T12:47:29.852Z,59.84
2019-05-09T12:50:02.923Z,60.60
2019-05-09T12:52:33.045Z,60.08
2019-05-09T12:55:04.330Z,60.61
2019-05-09T12:57:34.896Z,59.61
2019-05-09T13:00:11.985Z,61.69
2019-05-09T13:02:42.581Z,58.33
2019-05-09T13:05:13.396Z,57.93
2019-05-09T13:07:44.017Z,59.09
2019-05-09T13:10:14.811Z,58.38
2019-05-09T13:12:47.591Z,58.66
2019-05-09T13:15:20.854Z,58.44
2019-05-09T13:17:52.342Z,58.51
2019-05-09T13:20:22.918Z,58.93
2019-05-09T13:22:53.480Z,60.46
2019-05-09T13:25:24.115Z,59.60
2019-05-09T13:27:55.073Z,60.16
2019-05-09T13:30:28.308Z,60.85
2019-05-09T13:32:57.991Z,60.90
2019-05-09T13:35:28.625Z,60.80
2019-05-09T13:37:59.793Z,59.59
2019-05-09T13:40:30.426Z,59.91
2019-05-09T13:43:01.118Z,59.95
2019-05-09T13:45:31.699Z,60.65
2019-05-09T13:48:02.284Z,60.88
2019-05-09T13:50:33.942Z,59.42
2019-05-09T13:53:04.558Z,58.59
2019-05-09T13:55:37.921Z,58.73
2019-05-09T13:58:07.748Z,58.24
2019-05-09T14:00:39.413Z,58.66
2019-05-09T14:03:11.231Z,59.08
2019-05-09T14:05:42.817Z,58.14
2019-05-09T14:08:14.285Z,58.64
2019-05-09T14:10:44.922Z,57.81
2019-05-09T14:13:15.507Z,57.67
2019-05-09T14:15:48.672Z,58.08
2019-05-09T14:18:19.103Z,58.47
2019-05-09T14:20:49.852Z,58.68
2019-05-09T14:23:21.520Z,58.64
2019-05-09T14:25:52.226Z,59.56
2019-05-09T14:28:22.871Z,59.83
2019-05-09T14:30:53.754Z,59.01
2019-05-09T14:33:24.646Z,59.73
2019-05-09T14:35:55.232Z,58.93
2019-05-09T14:38:28.035Z,60.62
2019-05-09T14:40:59.483Z,59.59
2019-05-09T14:43:30.530Z,60.33
2019-05-09T14:46:01.222Z,59.64
2019-05-09T14:48:31.824Z,60.45
2019-05-09T14:51:02.524Z,59.99
2019-05-09T14:53:33.383Z,60.08
2019-05-09T14:56:04.082Z,58.69
2019-05-09T14:58:34.652Z,58.71
2019-05-09T15:01:08.388Z,58.57
2019-05-09T15:03:38.905Z,58.33
2019-05-09T15:06:09.820Z,58.94
2019-05-09T15:08:40.428Z,58.71
2019-05-09T15:11:11.161Z,58.79
2019-05-09T15:13:41.723Z,59.74
2019-05-09T15:16:13.988Z,60.17
2019-05-09T15:18:44.590Z,59.97
2019-05-09T15:21:16.658Z,59.68
2019-05-09T15:23:48.192Z,58.97
2019-05-09T15:26:20.511Z,60.15
2019-05-09T15:28:51.086Z,58.46
2019-05-09T15:31:22.067Z,59.69
2019-05-09T15:33:52.724Z,60.00
2019-05-09T15:36:23.400Z,60.42
2019-05-09T15:38:54.091Z,59.97
2019-05-09T15:41:24.677Z,60.42
2019-05-09T15:43:57.919Z,60.02
2019-05-09T15:46:30.007Z,59.62
2019-05-09T15:49:00.630Z,60.14
2019-05-09T15:51:32.195Z,60.25
2019-05-09T15:54:02.932Z,60.46
2019-05-09T15:56:33.689Z,61.09
2019-05-09T15:59:04.309Z,61.10
2019-05-09T16:01:38.520Z,60.63
2019-05-09T16:04:09.143Z,60.07
2019-05-09T16:06:39.753Z,60.37
2019-05-09T16:09:12.059Z,59.99
2019-05-09T16:11:42.853Z,59.76
2019-05-09T16:14:14.610Z,59.31
2019-05-09T16:16:47.850Z,55.82
2019-05-09T16:19:19.352Z,56.04
2019-05-09T16:21:49.959Z,56.30
2019-05-09T16:24:20.559Z,58.16
2019-05-09T16:26:51.605Z,59.77
2019-05-09T16:29:22.279Z,59.99
2019-05-09T16:31:53.146Z,58.44
2019-05-09T16:34:23.718Z,57.80
2019-05-09T16:36:54.325Z,59.03
2019-05-09T16:39:27.794Z,58.08
2019-05-09T16:41:59.158Z,57.07
2019-05-09T16:44:29.955Z,54.91
2019-05-09T16:47:00.552Z,55.03
2019-05-09T16:49:31.152Z,56.76
2019-05-09T16:52:01.733Z,58.56
2019-05-09T16:54:34.026Z,60.19
2019-05-09T16:57:04.663Z,60.54
2019-05-09T16:59:35.242Z,61.94
2019-05-09T17:02:18.714Z,61.42
2019-05-09T17:04:40.432Z,61.52
2019-05-09T17:07:11.009Z,59.89
2019-05-09T17:09:44.983Z,59.80
2019-05-09T17:12:18.658Z,59.93
2019-05-09T17:14:49.372Z,58.38
2019-05-09T17:17:19.976Z,60.65
2019-05-09T17:19:50.922Z,59.76
2019-05-09T17:22:39.850Z,60.10
2019-05-09T17:25:10.539Z,59.88
2019-05-09T17:27:41.491Z,57.37
2019-05-09T17:30:12.295Z,56.05
2019-05-09T17:32:43.126Z,56.53
2019-05-09T17:35:14.677Z,57.21
2019-05-09T17:37:45.280Z,58.27
2019-05-09T17:40:19.050Z,57.65
2019-05-09T17:42:48.581Z,59.13
2019-05-09T17:45:20.098Z,57.86
2019-05-09T17:47:51.115Z,56.54
2019-05-09T17:50:21.981Z,54.88
2019-05-09T17:52:52.787Z,54.45
2019-05-09T17:55:23.468Z,57.40
2019-05-09T17:57:54.139Z,58.59
2019-05-09T18:00:27.836Z,57.01
2019-05-09T18:02:59.160Z,57.36
2019-05-09T18:05:31.726Z,59.73
2019-05-09T18:08:03.900Z,61.95
2019-05-09T18:10:38.043Z,60.22
2019-05-09T18:13:08.541Z,60.55
2019-05-09T18:15:40.089Z,59.21
2019-05-09T18:18:10.850Z,56.83
2019-05-09T18:20:42.946Z,54.78
2019-05-09T18:23:13.604Z,55.38
2019-05-09T18:25:49.197Z,53.89
2019-05-09T18:28:19.336Z,54.37
2019-05-09T18:30:50.080Z,56.52
2019-05-09T18:33:38.080Z,57.93
2019-05-09T18:36:09.215Z,60.06
2019-05-09T18:38:41.933Z,62.04
2019-05-09T18:41:17.686Z,62.88
2019-05-09T18:43:48.269Z,63.87
2019-05-09T18:46:21.721Z,64.18
2019-05-09T18:48:52.658Z,61.16
2019-05-09T18:51:23.668Z,60.71
2019-05-09T18:53:54.304Z,61.44
2019-05-09T18:56:24.884Z,60.79
2019-05-09T18:58:55.568Z,60.24
2019-05-09T19:01:26.285Z,59.42
2019-05-09T19:03:57.665Z,60.24
2019-05-09T19:06:28.478Z,61.97
2019-05-09T19:08:59.579Z,61.96
2019-05-09T19:11:30.921Z,62.12
2019-05-09T19:14:03.527Z,61.70
2019-05-09T19:16:52.891Z,61.35
2019-05-09T19:19:25.325Z,63.43
2019-05-09T19:22:06.384Z,64.86
2019-05-09T19:24:34.425Z,64.94
2019-05-09T19:27:05.339Z,65.02
2019-05-09T19:29:35.988Z,65.02
2019-05-09T19:32:07.504Z,65.07
2019-05-09T19:34:42.406Z,64.98
2019-05-09T19:37:13.153Z,65.33
2019-05-09T19:39:43.778Z,65.49
2019-05-09T19:42:15.686Z,65.78
2019-05-09T19:44:46.984Z,66.36
2019-05-09T19:47:19.205Z,66.51
2019-05-09T19:49:50.470Z,66.68
2019-05-09T19:52:36.205Z,66.48
2019-05-09T19:54:55.658Z,66.52
2019-05-09T19:57:27.465Z,66.83
2019-05-09T19:59:58.262Z,67.42
2019-05-09T20:02:29.745Z,68.20
2019-05-09T20:05:00.724Z,68.41
2019-05-09T20:07:33.072Z,68.47
2019-05-09T20:10:11.337Z,68.66
2019-05-09T20:13:00.842Z,68.63
2019-05-09T20:15:31.544Z,68.57
2019-05-09T20:18:02.297Z,68.62
2019-05-09T20:20:33.287Z,68.42
2019-05-09T20:23:04.472Z,67.45
2019-05-09T20:25:35.182Z,66.60
2019-05-09T20:28:06.147Z,66.22
2019-05-09T20:30:36.686Z,65.82
2019-05-09T20:33:07.779Z,65.29
2019-05-09T20:35:38.756Z,64.88
2019-05-09T20:38:10.099Z,65.45
2019-05-09T20:40:42.401Z,65.48
2019-05-09T20:43:13.573Z,65.64
2019-05-09T20:45:44.990Z,65.38
2019-05-09T20:48:15.971Z,64.90
2019-05-09T20:50:46.832Z,63.95
2019-05-09T20:53:17.745Z,63.61
2019-05-09T20:55:48.885Z,63.92
2019-05-09T20:58:19.638Z,63.89
2019-05-09T21:00:50.542Z,63.38
2019-05-09T21:03:21.474Z,63.78
2019-05-09T21:05:52.309Z,63.75
2019-05-09T21:08:24.314Z,64.23
2019-05-09T21:10:55.125Z,64.03
2019-05-09T21:13:26.102Z,64.54
2019-05-09T21:15:56.958Z,64.62
2019-05-09T21:18:27.952Z,64.85
2019-05-09T21:20:59.818Z,65.28
2019-05-09T21:23:30.602Z,64.78
2019-05-09T21:26:01.414Z,64.68
2019-05-09T21:28:33.160Z,65.15
2019-05-09T21:31:04.329Z,64.90
2019-05-09T21:33:35.438Z,63.88
2019-05-09T21:36:06.038Z,63.53
2019-05-09T21:38:36.618Z,63.70
2019-05-09T21:41:07.188Z,63.45
2019-05-09T21:43:37.769Z,63.43
2019-05-09T21:46:08.352Z,62.89
2019-05-09T21:48:38.930Z,62.97
2019-05-09T21:51:09.564Z,63.14
2019-05-09T21:53:41.347Z,62.99
2019-05-09T21:56:12.129Z,61.93
2019-05-09T21:58:42.719Z,62.19
2019-05-09T22:01:16.418Z,62.41
2019-05-09T22:03:47.407Z,62.30
2019-05-09T22:06:17.988Z,62.23
2019-05-09T22:08:48.570Z,61.85
2019-05-09T22:11:19.145Z,62.74
2019-05-09T22:13:49.704Z,63.04
2019-05-09T22:16:21.233Z,63.11
2019-05-09T22:18:52.173Z,63.31
2019-05-09T22:21:22.822Z,62.70
2019-05-09T22:23:56.786Z,62.89
2019-05-09T22:26:25.684Z,62.92
2019-05-09T22:28:56.255Z,63.33
2019-05-09T22:31:26.836Z,64.58
2019-05-09T22:33:57.411Z,64.40
2019-05-09T22:36:27.969Z,64.81
2019-05-09T22:38:58.552Z,64.12
2019-05-09T22:41:29.109Z,64.39
2019-05-09T22:43:59.761Z,64.38
2019-05-09T22:46:30.439Z,64.05
2019-05-09T22:49:01.025Z,63.48
2019-05-09T22:51:31.577Z,63.00
2019-05-09T22:54:12.415Z,63.42
2019-05-09T22:56:34.536Z,63.79
2019-05-09T22:59:05.394Z,64.27
2019-05-09T23:01:35.973Z,64.42
2019-05-09T23:04:06.582Z,63.59
2019-05-09T23:06:37.520Z,62.58
2019-05-09T23:09:08.131Z,62.21
2019-05-09T23:11:38.807Z,62.29
2019-05-09T23:14:09.596Z,62.34
2019-05-09T23:16:41.142Z,62.11
2019-05-09T23:19:11.724Z,62.49
2019-05-09T23:21:42.308Z,61.39
2019-05-09T23:24:27.486Z,61.76
2019-05-09T23:26:47.122Z,61.42
2019-05-09T23:29:17.858Z,61.60
2019-05-09T23:31:50.078Z,61.75
2019-05-09T23:34:20.656Z,60.97
2019-05-09T23:36:51.338Z,61.17
2019-05-09T23:39:29.420Z,61.46
2019-05-09T23:42:00.014Z,60.89
2019-05-09T23:44:30.790Z,61.56
2019-05-09T23:47:01.384Z,61.63
2019-05-09T23:49:31.996Z,61.29
2019-05-09T23:52:02.859Z,61.29
2019-05-09T23:54:51.423Z,61.13
2019-05-09T23:57:39.771Z,60.91
